Time;durP1;ratioP1;P1;durP2;ratioP2;P2;SDS_P1;SDS_P2;PMS_P1;PMS_P2;Temp;Humidity;BMP_temperature;BMP_pressure;BME280_temperature;BME280_humidity;BME280_pressure;Samples;Min_cycle;Max_cycle;Signal;HPM_P1;HPM_P2
2021/12/13 00:01:04;;;;;;;;;;;;;;;;;;5087034;28;19912;-64
2021/12/13 00:03:29;;;;;;;;;;;;;;;;;;5083746;28;19916;-64
2021/12/13 00:05:54;;;;;;;;;;;;;;;;;;5083740;28;19947;-64
2021/12/13 00:08:20;;;;;;;;;;;;;;;;;;5085736;28;19913;-64
2021/12/13 00:10:45;;;;;;;;;;;;;;;;;;5083867;28;20345;-64
2021/12/13 00:13:10;;;;;;;;;;;;;;;;;;5087526;28;19912;-64
2021/12/13 00:15:35;;;;;;;;;;;;;;;;;;5085837;28;20253;-64
2021/12/13 00:18:00;;;;;;;;;;;;;;;;;;5087227;28;19975;-64
2021/12/13 00:20:28;;;;;;;;;;;;;;;;;;5086628;28;20398;-64
2021/12/13 00:22:53;;;;;;;;;;;;;;;;;;5086910;28;20376;-64
2021/12/13 00:25:18;;;;;;;;;;;;;;;;;;5088945;28;19919;-64
2021/12/13 00:27:43;;;;;;;;;;;;;;;;;;5088076;28;19926;-64
2021/12/13 00:30:08;;;;;;;;;;;;;;;;;;5090074;28;20468;-64
2021/12/13 00:32:33;;;;;;;;;;;;;;;;;;5087196;28;20430;-64
2021/12/13 00:34:59;;;;;;;;;;;;;;;;;;5084479;28;19920;-64
2021/12/13 00:37:24;;;;;;;;;;;;;;;;;;5089155;28;19912;-64
2021/12/13 00:39:49;;;;;;;;;;;;;;;;;;5085674;28;19912;-64
2021/12/13 00:42:14;;;;;;;;;;;;;;;;;;5089470;28;19955;-64
2021/12/13 00:44:39;;;;;;;;;;;;;;;;;;5086622;28;19919;-64
2021/12/13 00:47:05;;;;;;;;;;;;;;;;;;5086218;28;19931;-64
2021/12/13 00:49:31;;;;;;;;;;;;;;;;;;5085426;28;19927;-64
2021/12/13 00:51:56;;;;;;;;;;;;;;;;;;5089418;28;20007;-64
2021/12/13 00:54:21;;;;;;;;;;;;;;;;;;5084805;28;19912;-64
2021/12/13 00:56:46;;;;;;;;;;;;;;;;;;5086812;28;20364;-64
2021/12/13 00:59:11;;;;;;;;;;;;;;;;;;5088857;28;19970;-64
2021/12/13 01:01:36;;;;;;;;;;;;;;;;;;5075816;28;20003;-64
2021/12/13 01:04:01;;;;;;;;;;;;;;;;;;5082434;28;20321;-64
2021/12/13 01:06:26;;;;;;;;;;;;;;;;;;5086376;28;19912;-64
2021/12/13 01:08:51;;;;;;;;;;;;;;;;;;5086363;28;20002;-64
2021/12/13 01:11:17;;;;;;;;;;;;;;;;;;5089322;28;19965;-64
2021/12/13 01:13:42;;;;;;;;;;;;;;;;;;5084622;28;20258;-64
2021/12/13 01:16:15;;;;;;;;;;;;;;;;;;5086186;28;19912;-64
2021/12/13 01:18:57;;;;;;;;;;;;;;;;;;5084543;28;19919;-64
2021/12/13 01:21:32;;;;;;;;;;;;;;;;;;5085066;28;20272;-64
2021/12/13 01:24:04;;;;;;;;;;;;;;;;;;5088717;28;19931;-64
2021/12/13 01:26:38;;;;;;;;;;;;;;;;;;5084159;28;19916;-64
2021/12/13 01:29:03;;;;;;;;;;;;;;;;;;5081768;28;20019;-64
2021/12/13 01:31:28;;;;;;;;;;;;;;;;;;5084877;28;20126;-64
2021/12/13 01:33:53;;;;;;;;;;;;;;;;;;5084585;28;19916;-64
2021/12/13 01:36:20;;;;;;;;;;;;;;;;;;5077727;28;19920;-65
2021/12/13 01:38:45;;;;;;;;;;;;;;;;;;5081210;28;20445;-64
2021/12/13 01:41:10;;;;;;;;;;;;;;;;;;5084151;28;19923;-64
2021/12/13 01:43:36;;;;;;;;;;;;;;;;;;5087678;28;19927;-64
2021/12/13 01:46:01;;;;;;;;;;;;;;;;;;5090438;28;20004;-64
2021/12/13 01:48:26;;;;;;;;;;;;;;;;;;5081815;28;20390;-64
2021/12/13 01:50:53;;;;;;;;;;;;;;;;;;5086318;28;19912;-64
2021/12/13 01:53:18;;;;;;;;;;;;;;;;;;5081818;28;19939;-64
2021/12/13 01:55:45;;;;;;;;;;;;;;;;;;5086284;28;19923;-64
2021/12/13 02:01:10;;;;;;;;;;;;;;;;;;5071095;28;19916;-65
2021/12/13 02:03:35;;;;;;;;;;;;;;;;;;5081248;28;19947;-64
2021/12/13 02:06:00;;;;;;;;;;;;;;;;;;5083744;28;20261;-64
2021/12/13 02:08:27;;;;;;;;;;;;;;;;;;5085577;28;19993;-64
2021/12/13 02:10:52;;;;;;;;;;;;;;;;;;5085653;28;19919;-64
2021/12/13 02:13:20;;;;;;;;;;;;;;;;;;5084809;28;19916;-64
2021/12/13 02:18:29;;;;;;;;;;;;;;;;;;5086310;28;19919;-64
2021/12/13 02:21:02;;;;;;;;;;;;;;;;;;5078290;28;19995;-64
2021/12/13 02:23:27;;;;;;;;;;;;;;;;;;5085946;28;19928;-64
2021/12/13 02:25:52;;;;;;;;;;;;;;;;;;5087475;28;19916;-64
2021/12/13 02:28:17;;;;;;;;;;;;;;;;;;5079306;28;19919;-64
2021/12/13 02:30:42;;;;;;;;;;;;;;;;;;5083953;28;19947;-64
2021/12/13 02:33:07;;;;;;;;;;;;;;;;;;5081841;28;19923;-64
2021/12/13 02:35:32;;;;;;;;;;;;;;;;;;5069025;28;19920;-64
2021/12/13 02:37:57;;;;;;;;;;;;;;;;;;5063243;28;19926;-64
2021/12/13 02:40:22;;;;;;;;;;;;;;;;;;5067005;28;19982;-64
2021/12/13 02:42:47;;;;;;;;;;;;;;;;;;5065492;28;19964;-64
2021/12/13 02:45:14;;;;;;;;;;;;;;;;;;5070680;28;19916;-64
2021/12/13 02:47:39;;;;;;;;;;;;;;;;;;5071851;28;19966;-64
2021/12/13 02:50:04;;;;;;;;;;;;;;;;;;5064622;28;19916;-64
2021/12/13 02:52:29;;;;;;;;;;;;;;;;;;5068190;28;19923;-64
2021/12/13 02:54:55;;;;;;;;;;;;;;;;;;5071837;28;20348;-64
2021/12/13 02:57:20;;;;;;;;;;;;;;;;;;5065877;28;19928;-64
2021/12/13 02:59:45;;;;;;;;;;;;;;;;;;5071569;28;19928;-64
2021/12/13 03:02:11;;;;;;;;;;;;;;;;;;5065271;28;19942;-64
2021/12/13 03:04:36;;;;;;;;;;;;;;;;;;5065027;28;20058;-64
2021/12/13 03:07:01;;;;;;;;;;;;;;;;;;5056801;28;19917;-64
2021/12/13 03:09:26;;;;;;;;;;;;;;;;;;5068590;28;19916;-64
2021/12/13 03:11:51;;;;;;;;;;;;;;;;;;5067778;28;20003;-64
2021/12/13 03:14:16;;;;;;;;;;;;;;;;;;5066983;28;19920;-64
2021/12/13 03:16:41;;;;;;;;;;;;;;;;;;5062845;28;20665;-64
2021/12/13 03:19:08;;;;;;;;;;;;;;;;;;5063886;28;19924;-64
2021/12/13 03:21:33;;;;;;;;;;;;;;;;;;5055620;28;20277;-64
2021/12/13 03:23:58;;;;;;;;;;;;;;;;;;5065423;28;21557;-65
2021/12/13 03:26:23;;;;;;;;;;;;;;;;;;5064952;28;19916;-64
2021/12/13 03:28:48;;;;;;;;;;;;;;;;;;5066190;28;20261;-64
2021/12/13 03:31:13;;;;;;;;;;;;;;;;;;5063379;28;19995;-64
2021/12/13 03:33:38;;;;;;;;;;;;;;;;;;5057425;28;19913;-64
2021/12/13 03:36:03;;;;;;;;;;;;;;;;;;5082305;28;19979;-64
2021/12/13 03:38:29;;;;;;;;;;;;;;;;;;5089481;28;19920;-64
2021/12/13 03:40:54;;;;;;;;;;;;;;;;;;5085729;28;19963;-64
2021/12/13 03:43:19;;;;;;;;;;;;;;;;;;5084742;28;20041;-64
2021/12/13 03:45:44;;;;;;;;;;;;;;;;;;5079534;28;19912;-64
2021/12/13 03:48:09;;;;;;;;;;;;;;;;;;5085668;28;20019;-65
2021/12/13 03:50:34;;;;;;;;;;;;;;;;;;5087045;28;20019;-65
2021/12/13 03:52:59;;;;;;;;;;;;;;;;;;5087530;28;19966;-65
2021/12/13 03:55:24;;;;;;;;;;;;;;;;;;5089367;28;19912;-63
2021/12/13 03:57:49;;;;;;;;;;;;;;;;;;5091070;28;19920;-64
2021/12/13 04:00:14;;;;;;;;;;;;;;;;;;5089630;28;19919;-64
2021/12/13 04:02:39;;;;;;;;;;;;;;;;;;5089450;28;19976;-63
2021/12/13 04:05:04;;;;;;;;;;;;;;;;;;5072711;28;19927;-65
2021/12/13 04:07:30;;;;;;;;;;;;;;;;;;5088266;28;19920;-64
2021/12/13 04:09:55;;;;;;;;;;;;;;;;;;5088330;28;19931;-64
2021/12/13 04:12:22;;;;;;;;;;;;;;;;;;5091608;28;19920;-64
2021/12/13 04:14:50;;;;;;;;;;;;;;;;;;5082981;28;19920;-64
2021/12/13 04:17:22;;;;;;;;;;;;;;;;;;5086138;28;19920;-64
2021/12/13 04:19:48;;;;;;;;;;;;;;;;;;5090655;28;20398;-64
2021/12/13 04:22:13;;;;;;;;;;;;;;;;;;5085167;28;19916;-64
2021/12/13 04:24:38;;;;;;;;;;;;;;;;;;5088546;28;20404;-64
2021/12/13 04:27:03;;;;;;;;;;;;;;;;;;5080891;28;19920;-64
2021/12/13 04:29:28;;;;;;;;;;;;;;;;;;5086721;28;19944;-64
2021/12/13 04:31:53;;;;;;;;;;;;;;;;;;5083735;28;19916;-64
2021/12/13 04:34:18;;;;;;;;;;;;;;;;;;5086766;28;20375;-65
2021/12/13 04:36:43;;;;;;;;;;;;;;;;;;5083288;28;19916;-64
2021/12/13 04:39:08;;;;;;;;;;;;;;;;;;5084479;28;20324;-64
2021/12/13 04:41:33;;;;;;;;;;;;;;;;;;5084877;28;19916;-64
2021/12/13 04:43:58;;;;;;;;;;;;;;;;;;5086772;28;19916;-64
2021/12/13 04:46:23;;;;;;;;;;;;;;;;;;5088089;28;19916;-64
2021/12/13 04:48:48;;;;;;;;;;;;;;;;;;5087082;28;20007;-65
2021/12/13 04:51:13;;;;;;;;;;;;;;;;;;5086859;28;20356;-65
2021/12/13 04:53:39;;;;;;;;;;;;;;;;;;5089481;28;19912;-65
2021/12/13 04:56:04;;;;;;;;;;;;;;;;;;5088842;28;20488;-65
2021/12/13 04:58:29;;;;;;;;;;;;;;;;;;5084051;28;20006;-65
2021/12/13 05:00:54;;;;;;;;;;;;;;;;;;5087006;28;19912;-65
2021/12/13 05:03:19;;;;;;;;;;;;;;;;;;5087258;28;19936;-64
2021/12/13 05:05:44;;;;;;;;;;;;;;;;;;5083310;28;20007;-64
2021/12/13 05:08:10;;;;;;;;;;;;;;;;;;5080909;28;20280;-64
2021/12/13 05:10:35;;;;;;;;;;;;;;;;;;5085536;28;20015;-65
2021/12/13 05:13:00;;;;;;;;;;;;;;;;;;5081518;28;20023;-65
2021/12/13 05:15:25;;;;;;;;;;;;;;;;;;5083477;28;20007;-65
2021/12/13 05:17:50;;;;;;;;;;;;;;;;;;5084141;28;19917;-66
2021/12/13 05:20:16;;;;;;;;;;;;;;;;;;5086621;28;19963;-65
2021/12/13 05:22:41;;;;;;;;;;;;;;;;;;5086898;28;19934;-65
2021/12/13 05:25:06;;;;;;;;;;;;;;;;;;5086261;28;19916;-65
2021/12/13 05:27:31;;;;;;;;;;;;;;;;;;5068706;28;20307;-65
2021/12/13 05:29:56;;;;;;;;;;;;;;;;;;5084921;28;20003;-65
2021/12/13 05:32:21;;;;;;;;;;;;;;;;;;5080615;28;19935;-65
2021/12/13 05:34:46;;;;;;;;;;;;;;;;;;5082317;28;19931;-65
2021/12/13 05:37:11;;;;;;;;;;;;;;;;;;5088509;28;19999;-65
2021/12/13 05:39:37;;;;;;;;;;;;;;;;;;5084034;28;19916;-65
2021/12/13 05:42:02;;;;;;;;;;;;;;;;;;5082176;28;19961;-62
2021/12/13 05:44:27;;;;;;;;;;;;;;;;;;5083851;28;19915;-62
2021/12/13 05:46:52;;;;;;;;;;;;;;;;;;5087784;28;19912;-62
2021/12/13 05:49:17;;;;;;;;;;;;;;;;;;5085272;28;19946;-62
2021/12/13 05:51:42;;;;;;;;;;;;;;;;;;5082707;28;19919;-62
2021/12/13 05:54:07;;;;;;;;;;;;;;;;;;5084310;28;19999;-62
2021/12/13 05:56:32;;;;;;;;;;;;;;;;;;5082597;28;19919;-62
2021/12/13 05:58:57;;;;;;;;;;;;;;;;;;5069705;28;19919;-63
2021/12/13 06:01:22;;;;;;;;;;;;;;;;;;5086036;28;19923;-62
2021/12/13 06:03:48;;;;;;;;;;;;;;;;;;5082501;28;19924;-62
2021/12/13 06:06:13;;;;;;;;;;;;;;;;;;5083785;28;20278;-63
2021/12/13 06:08:38;;;;;;;;;;;;;;;;;;5085407;28;19913;-63
2021/12/13 06:11:03;;;;;;;;;;;;;;;;;;5081807;28;19920;-63
2021/12/13 06:13:28;;;;;;;;;;;;;;;;;;5085930;28;20337;-63
2021/12/13 06:15:53;;;;;;;;;;;;;;;;;;5081600;28;19931;-63
2021/12/13 06:18:18;;;;;;;;;;;;;;;;;;5085865;28;19912;-62
2021/12/13 06:20:43;;;;;;;;;;;;;;;;;;5085661;28;19948;-63
2021/12/13 06:23:08;;;;;;;;;;;;;;;;;;5085965;28;19931;-63
2021/12/13 06:25:34;;;;;;;;;;;;;;;;;;5080144;28;19948;-63
2021/12/13 06:27:59;;;;;;;;;;;;;;;;;;5084942;28;19958;-63
2021/12/13 06:30:24;;;;;;;;;;;;;;;;;;5082344;28;20403;-63
2021/12/13 06:32:50;;;;;;;;;;;;;;;;;;5081957;28;19919;-64
2021/12/13 06:35:15;;;;;;;;;;;;;;;;;;5083624;28;20007;-63
2021/12/13 06:37:40;;;;;;;;;;;;;;;;;;5085110;28;19998;-63
2021/12/13 06:40:05;;;;;;;;;;;;;;;;;;5082464;28;19913;-63
2021/12/13 06:42:30;;;;;;;;;;;;;;;;;;5080252;28;19924;-64
2021/12/13 06:44:55;;;;;;;;;;;;;;;;;;5085348;28;19974;-64
2021/12/13 06:47:20;;;;;;;;;;;;;;;;;;5087268;28;19919;-64
2021/12/13 06:49:45;;;;;;;;;;;;;;;;;;5088432;28;19923;-63
2021/12/13 06:52:10;;;;;;;;;;;;;;;;;;5084458;28;20541;-64
2021/12/13 06:54:36;;;;;;;;;;;;;;;;;;5080566;28;20003;-64
2021/12/13 06:57:01;;;;;;;;;;;;;;;;;;5081001;28;19920;-64
2021/12/13 06:59:26;;;;;;;;;;;;;;;;;;5084944;28;20392;-64
2021/12/13 07:01:51;;;;;;;;;;;;;;;;;;5087825;28;19919;-64
2021/12/13 07:04:16;;;;;;;;;;;;;;;;;;5084709;28;19917;-64
2021/12/13 07:06:41;;;;;;;;;;;;;;;;;;5084264;28;19916;-64
2021/12/13 07:09:06;;;;;;;;;;;;;;;;;;5083957;28;19940;-64
2021/12/13 07:11:31;;;;;;;;;;;;;;;;;;5070901;28;19975;-63
2021/12/13 07:13:56;;;;;;;;;;;;;;;;;;5082493;28;20516;-63
2021/12/13 07:16:22;;;;;;;;;;;;;;;;;;5084123;28;19913;-64
2021/12/13 07:18:48;;;;;;;;;;;;;;;;;;5084771;28;19916;-63
2021/12/13 07:21:13;;;;;;;;;;;;;;;;;;5085482;28;19928;-64
2021/12/13 07:23:38;;;;;;;;;;;;;;;;;;5072126;28;19919;-64
2021/12/13 07:26:03;;;;;;;;;;;;;;;;;;5085860;28;19916;-62
2021/12/13 07:28:28;;;;;;;;;;;;;;;;;;5091510;28;20310;-64
2021/12/13 07:30:53;;;;;;;;;;;;;;;;;;5089554;28;20003;-63
2021/12/13 07:33:18;;;;;;;;;;;;;;;;;;5089554;28;20041;-64
2021/12/13 07:35:44;;;;;;;;;;;;;;;;;;5088210;28;19927;-64
2021/12/13 07:38:09;;;;;;;;;;;;;;;;;;5092587;28;20324;-64
2021/12/13 07:40:34;;;;;;;;;;;;;;;;;;5090900;28;19916;-64
2021/12/13 07:42:59;;;;;;;;;;;;;;;;;;5088063;28;20345;-64
2021/12/13 07:45:24;;;;;;;;;;;;;;;;;;5085687;28;20276;-63
2021/12/13 07:47:49;;;;;;;;;;;;;;;;;;5088992;28;19913;-63
2021/12/13 07:50:14;;;;;;;;;;;;;;;;;;5090596;28;19912;-63
2021/12/13 07:52:39;;;;;;;;;;;;;;;;;;5091712;28;19916;-63
2021/12/13 07:55:04;;;;;;;;;;;;;;;;;;5088320;28;19912;-63
2021/12/13 07:57:29;;;;;;;;;;;;;;;;;;5085764;28;19927;-63
2021/12/13 07:59:55;;;;;;;;;;;;;;;;;;5090453;28;20424;-63
2021/12/13 08:02:21;;;;;;;;;;;;;;;;;;5087026;28;20069;-63
2021/12/13 08:04:46;;;;;;;;;;;;;;;;;;5087821;28;19977;-63
2021/12/13 08:07:11;;;;;;;;;;;;;;;;;;5089395;28;19916;-63
2021/12/13 08:09:36;;;;;;;;;;;;;;;;;;5085843;28;19926;-63
2021/12/13 08:12:01;;;;;;;;;;;;;;;;;;5088677;28;19916;-63
2021/12/13 08:14:26;;;;;;;;;;;;;;;;;;5087713;28;21645;-63
2021/12/13 08:16:51;;;;;;;;;;;;;;;;;;5085398;28;20002;-63
2021/12/13 08:19:16;;;;;;;;;;;;;;;;;;5089185;28;19924;-63
2021/12/13 08:21:41;;;;;;;;;;;;;;;;;;5088652;28;19960;-63
2021/12/13 08:24:06;;;;;;;;;;;;;;;;;;5087700;28;19919;-63
2021/12/13 08:26:32;;;;;;;;;;;;;;;;;;5086225;28;19978;-63
2021/12/13 08:28:57;;;;;;;;;;;;;;;;;;5088576;28;19915;-63
2021/12/13 08:31:22;;;;;;;;;;;;;;;;;;5084612;28;19938;-63
2021/12/13 08:33:47;;;;;;;;;;;;;;;;;;5087394;28;19989;-63
2021/12/13 08:36:13;;;;;;;;;;;;;;;;;;5086037;28;19912;-63
2021/12/13 08:38:38;;;;;;;;;;;;;;;;;;5085180;28;19963;-63
2021/12/13 08:41:03;;;;;;;;;;;;;;;;;;5089644;28;19920;-62
2021/12/13 08:43:28;;;;;;;;;;;;;;;;;;5091033;28;19924;-62
2021/12/13 08:45:53;;;;;;;;;;;;;;;;;;5088069;28;19912;-62
2021/12/13 08:48:20;;;;;;;;;;;;;;;;;;5087908;28;19917;-64
2021/12/13 08:50:45;;;;;;;;;;;;;;;;;;5091335;28;20376;-64
2021/12/13 08:53:10;;;;;;;;;;;;;;;;;;5088876;28;20376;-64
2021/12/13 08:55:35;;;;;;;;;;;;;;;;;;5089207;28;19931;-64
2021/12/13 08:58:00;;;;;;;;;;;;;;;;;;5085937;28;19956;-64
2021/12/13 09:00:25;;;;;;;;;;;;;;;;;;5088452;28;19963;-64
2021/12/13 09:02:51;;;;;;;;;;;;;;;;;;5084965;28;20015;-64
2021/12/13 09:05:16;;;;;;;;;;;;;;;;;;5089579;28;19916;-64
2021/12/13 09:07:41;;;;;;;;;;;;;;;;;;5089920;28;19912;-64
2021/12/13 09:10:06;;;;;;;;;;;;;;;;;;5089841;28;20299;-64
2021/12/13 09:12:31;;;;;;;;;;;;;;;;;;5088007;28;19922;-64
2021/12/13 09:14:57;;;;;;;;;;;;;;;;;;5087315;28;19985;-64
2021/12/13 09:17:23;;;;;;;;;;;;;;;;;;5082622;28;20045;-64
2021/12/13 09:19:48;;;;;;;;;;;;;;;;;;5085363;28;19920;-64
2021/12/13 09:22:13;;;;;;;;;;;;;;;;;;5088322;28;19916;-63
2021/12/13 09:24:38;;;;;;;;;;;;;;;;;;5085662;28;20288;-64
2021/12/13 09:27:03;;;;;;;;;;;;;;;;;;5088616;28;19920;-63
2021/12/13 09:29:28;;;;;;;;;;;;;;;;;;5086429;28;19916;-63
2021/12/13 09:31:53;;;;;;;;;;;;;;;;;;5082439;28;19922;-63
2021/12/13 09:34:19;;;;;;;;;;;;;;;;;;5089084;28;19920;-63
2021/12/13 09:36:44;;;;;;;;;;;;;;;;;;5087690;28;19919;-63
2021/12/13 09:39:11;;;;;;;;;;;;;;;;;;5090094;28;19928;-63
2021/12/13 09:41:36;;;;;;;;;;;;;;;;;;5089913;28;19927;-63
2021/12/13 09:44:01;;;;;;;;;;;;;;;;;;5082264;28;19921;-63
2021/12/13 09:46:26;;;;;;;;;;;;;;;;;;5082717;28;19924;-63
2021/12/13 09:48:51;;;;;;;;;;;;;;;;;;5086615;28;19911;-63
2021/12/13 09:51:16;;;;;;;;;;;;;;;;;;5088320;28;20333;-64
2021/12/13 09:53:41;;;;;;;;;;;;;;;;;;5084906;28;19966;-64
2021/12/13 09:56:06;;;;;;;;;;;;;;;;;;5086261;28;20410;-64
2021/12/13 09:58:31;;;;;;;;;;;;;;;;;;5081661;28;19923;-64
2021/12/13 10:00:57;;;;;;;;;;;;;;;;;;5065331;28;19922;-64
2021/12/13 10:03:22;;;;;;;;;;;;;;;;;;5087044;28;20279;-63
2021/12/13 10:05:47;;;;;;;;;;;;;;;;;;5089288;28;20386;-63
2021/12/13 10:08:12;;;;;;;;;;;;;;;;;;5083014;28;19920;-64
2021/12/13 10:10:37;;;;;;;;;;;;;;;;;;5090589;28;19919;-62
2021/12/13 10:13:02;;;;;;;;;;;;;;;;;;5087934;28;19999;-63
2021/12/13 10:15:27;;;;;;;;;;;;;;;;;;5084495;28;20298;-63
2021/12/13 10:17:53;;;;;;;;;;;;;;;;;;5089279;28;19984;-64
2021/12/13 10:20:18;;;;;;;;;;;;;;;;;;5086423;28;19958;-63
2021/12/13 10:22:43;;;;;;;;;;;;;;;;;;5087935;28;19919;-63
2021/12/13 10:25:08;;;;;;;;;;;;;;;;;;5068223;28;19913;-63
2021/12/13 10:27:33;;;;;;;;;;;;;;;;;;5086670;28;19916;-63
2021/12/13 10:29:59;;;;;;;;;;;;;;;;;;5085491;28;19912;-63
2021/12/13 10:32:24;;;;;;;;;;;;;;;;;;5087075;28;19966;-63
2021/12/13 10:34:49;;;;;;;;;;;;;;;;;;5086230;28;19920;-63
2021/12/13 10:37:15;;;;;;;;;;;;;;;;;;5083394;28;20435;-64
2021/12/13 10:39:40;;;;;;;;;;;;;;;;;;5084396;28;19954;-64
2021/12/13 10:42:05;;;;;;;;;;;;;;;;;;5085989;28;19959;-64
2021/12/13 10:44:30;;;;;;;;;;;;;;;;;;5087247;28;19916;-63
2021/12/13 10:46:55;;;;;;;;;;;;;;;;;;5083404;28;20394;-64
2021/12/13 10:49:21;;;;;;;;;;;;;;;;;;5086320;28;20296;-64
2021/12/13 10:51:51;;;;;;;;;;;;;;;;;;5080949;28;19924;-63
2021/12/13 10:54:16;;;;;;;;;;;;;;;;;;5086437;28;19971;-63
2021/12/13 10:56:42;;;;;;;;;;;;;;;;;;5087536;28;19916;-64
2021/12/13 10:59:07;;;;;;;;;;;;;;;;;;5081113;28;19920;-64
2021/12/13 11:01:32;;;;;;;;;;;;;;;;;;5085160;28;19913;-64
2021/12/13 11:03:57;;;;;;;;;;;;;;;;;;5087504;28;20703;-64
2021/12/13 11:06:22;;;;;;;;;;;;;;;;;;5082396;28;19926;-64
2021/12/13 11:08:48;;;;;;;;;;;;;;;;;;5082865;28;20353;-64
2021/12/13 11:11:15;;;;;;;;;;;;;;;;;;5086559;28;19919;-64
2021/12/13 11:13:40;;;;;;;;;;;;;;;;;;5088326;28;20383;-64
2021/12/13 11:16:05;;;;;;;;;;;;;;;;;;5073184;28;20372;-64
2021/12/13 11:18:30;;;;;;;;;;;;;;;;;;5086751;28;19921;-63
2021/12/13 11:20:55;;;;;;;;;;;;;;;;;;5071935;28;19930;-63
2021/12/13 11:23:20;;;;;;;;;;;;;;;;;;5090735;28;19924;-63
2021/12/13 11:25:45;;;;;;;;;;;;;;;;;;5088649;28;19915;-64
2021/12/13 11:28:11;;;;;;;;;;;;;;;;;;5088464;28;19951;-64
2021/12/13 11:30:36;;;;;;;;;;;;;;;;;;5087441;28;19970;-64
2021/12/13 11:33:01;;;;;;;;;;;;;;;;;;5088344;28;19938;-64
2021/12/13 11:35:26;;;;;;;;;;;;;;;;;;5081198;28;20414;-65
2021/12/13 11:37:51;;;;;;;;;;;;;;;;;;5088312;28;20376;-63
2021/12/13 11:40:16;;;;;;;;;;;;;;;;;;5090831;28;19942;-64
2021/12/13 11:42:41;;;;;;;;;;;;;;;;;;5085321;28;20000;-64
2021/12/13 11:45:06;;;;;;;;;;;;;;;;;;5089893;28;20394;-64
2021/12/13 11:47:33;;;;;;;;;;;;;;;;;;5086609;28;19923;-64
2021/12/13 11:49:59;;;;;;;;;;;;;;;;;;5087834;28;19919;-64
2021/12/13 11:52:25;;;;;;;;;;;;;;;;;;5095806;28;19916;-64
2021/12/13 11:54:50;;;;;;;;;;;;;;;;;;5078970;28;20043;-64
2021/12/13 11:57:15;;;;;;;;;;;;;;;;;;5079765;28;19913;-64
2021/12/13 11:59:40;;;;;;;;;;;;;;;;;;5093364;28;20171;-64
2021/12/13 12:02:06;;;;;;;;;;;;;;;;;;5080848;28;19916;-64
2021/12/13 12:04:31;;;;;;;;;;;;;;;;;;5064349;28;19938;-64
2021/12/13 12:06:56;;;;;;;;;;;;;;;;;;5084772;28;19923;-63
2021/12/13 12:09:21;;;;;;;;;;;;;;;;;;5090027;28;19919;-63
2021/12/13 12:11:46;;;;;;;;;;;;;;;;;;5090074;28;19919;-64
2021/12/13 12:14:12;;;;;;;;;;;;;;;;;;5089249;28;19918;-64
2021/12/13 12:16:37;;;;;;;;;;;;;;;;;;5080937;28;19920;-64
2021/12/13 12:19:02;;;;;;;;;;;;;;;;;;5088584;28;20571;-64
2021/12/13 12:21:27;;;;;;;;;;;;;;;;;;5087959;28;19920;-63
2021/12/13 12:23:53;;;;;;;;;;;;;;;;;;5090030;28;20012;-63
2021/12/13 12:26:18;;;;;;;;;;;;;;;;;;5087479;28;19920;-63
2021/12/13 12:28:43;;;;;;;;;;;;;;;;;;5090299;28;19918;-64
2021/12/13 12:31:08;;;;;;;;;;;;;;;;;;5084436;28;19912;-63
2021/12/13 12:33:33;;;;;;;;;;;;;;;;;;5071979;28;19912;-64
2021/12/13 12:35:58;;;;;;;;;;;;;;;;;;5087900;28;20000;-64
2021/12/13 12:38:23;;;;;;;;;;;;;;;;;;5089416;28;20363;-63
2021/12/13 12:40:49;;;;;;;;;;;;;;;;;;5087291;28;19931;-63
2021/12/13 12:43:15;;;;;;;;;;;;;;;;;;5091778;28;19998;-64
2021/12/13 12:45:40;;;;;;;;;;;;;;;;;;5066415;28;20010;-63
2021/12/13 12:48:05;;;;;;;;;;;;;;;;;;5090623;28;19913;-63
2021/12/13 12:50:30;;;;;;;;;;;;;;;;;;5083982;28;20085;-64
2021/12/13 12:52:55;;;;;;;;;;;;;;;;;;5088183;28;20705;-64
2021/12/13 12:55:20;;;;;;;;;;;;;;;;;;5088669;28;19920;-64
2021/12/13 12:57:45;;;;;;;;;;;;;;;;;;5086040;28;20257;-64
2021/12/13 13:00:10;;;;;;;;;;;;;;;;;;5080509;28;20003;-64
2021/12/13 13:02:36;;;;;;;;;;;;;;;;;;5080697;28;19963;-64
2021/12/13 13:05:01;;;;;;;;;;;;;;;;;;5085498;28;19931;-64
2021/12/13 13:07:27;;;;;;;;;;;;;;;;;;5068927;28;19959;-64
2021/12/13 13:09:52;;;;;;;;;;;;;;;;;;5082190;28;19919;-64
2021/12/13 13:12:17;;;;;;;;;;;;;;;;;;5070858;28;19912;-64
2021/12/13 13:14:42;;;;;;;;;;;;;;;;;;5087350;28;20568;-64
2021/12/13 13:17:08;;;;;;;;;;;;;;;;;;5080283;28;19932;-64
2021/12/13 13:19:33;;;;;;;;;;;;;;;;;;5090591;28;20443;-64
2021/12/13 13:21:58;;;;;;;;;;;;;;;;;;5084851;28;19958;-64
2021/12/13 13:24:23;;;;;;;;;;;;;;;;;;5085447;28;19920;-64
2021/12/13 13:26:48;;;;;;;;;;;;;;;;;;5085045;28;19981;-64
2021/12/13 13:29:15;;;;;;;;;;;;;;;;;;5087717;28;19923;-64
2021/12/13 13:31:42;;;;;;;;;;;;;;;;;;5093455;28;19919;-63
2021/12/13 13:34:07;;;;;;;;;;;;;;;;;;5084355;28;19931;-63
2021/12/13 13:36:32;;;;;;;;;;;;;;;;;;5086906;28;19912;-64
2021/12/13 13:38:57;;;;;;;;;;;;;;;;;;5082587;28;19913;-63
2021/12/13 13:41:22;;;;;;;;;;;;;;;;;;5090307;28;19934;-63
2021/12/13 13:43:47;;;;;;;;;;;;;;;;;;5086177;28;20078;-63
2021/12/13 13:46:12;;;;;;;;;;;;;;;;;;5087087;28;19923;-63
2021/12/13 13:48:37;;;;;;;;;;;;;;;;;;5084387;28;20003;-63
2021/12/13 13:51:02;;;;;;;;;;;;;;;;;;5089811;28;19919;-63
2021/12/13 13:53:28;;;;;;;;;;;;;;;;;;5087655;28;19927;-63
2021/12/13 13:55:53;;;;;;;;;;;;;;;;;;5090069;28;19913;-64
2021/12/13 13:58:18;;;;;;;;;;;;;;;;;;5087236;28;19912;-64
2021/12/13 14:00:43;;;;;;;;;;;;;;;;;;5085573;28;20371;-64
2021/12/13 14:03:08;;;;;;;;;;;;;;;;;;5083420;28;19947;-63
2021/12/13 14:05:33;;;;;;;;;;;;;;;;;;5086547;28;20291;-64
2021/12/13 14:07:58;;;;;;;;;;;;;;;;;;5088453;28;19965;-64
2021/12/13 14:10:23;;;;;;;;;;;;;;;;;;5090964;28;20358;-64
2021/12/13 14:12:48;;;;;;;;;;;;;;;;;;5084892;28;19990;-65
2021/12/13 14:15:13;;;;;;;;;;;;;;;;;;5085164;28;19942;-64
2021/12/13 14:17:38;;;;;;;;;;;;;;;;;;5092947;28;19912;-64
2021/12/13 14:20:04;;;;;;;;;;;;;;;;;;5085537;28;19912;-64
2021/12/13 14:22:29;;;;;;;;;;;;;;;;;;5089049;28;19924;-63
2021/12/13 14:24:54;;;;;;;;;;;;;;;;;;5090536;28;20352;-64
2021/12/13 14:27:19;;;;;;;;;;;;;;;;;;5084030;28;19912;-64
2021/12/13 14:29:44;;;;;;;;;;;;;;;;;;5085254;28;19912;-65
2021/12/13 14:32:09;;;;;;;;;;;;;;;;;;5084068;28;19931;-64
2021/12/13 14:34:34;;;;;;;;;;;;;;;;;;5074947;28;20712;-64
2021/12/13 14:36:59;;;;;;;;;;;;;;;;;;5068881;28;19962;-65
2021/12/13 14:39:26;;;;;;;;;;;;;;;;;;5077126;28;20070;-64
2021/12/13 14:41:51;;;;;;;;;;;;;;;;;;5068104;28;19912;-64
2021/12/13 14:44:16;;;;;;;;;;;;;;;;;;5065921;28;19924;-64
2021/12/13 14:46:41;;;;;;;;;;;;;;;;;;5066440;28;19912;-64
2021/12/13 14:49:06;;;;;;;;;;;;;;;;;;5063470;28;20436;-64
2021/12/13 14:51:31;;;;;;;;;;;;;;;;;;5069039;28;19921;-64
2021/12/13 14:53:56;;;;;;;;;;;;;;;;;;5067916;28;19921;-64
2021/12/13 14:56:21;;;;;;;;;;;;;;;;;;5067429;28;20419;-64
2021/12/13 14:58:46;;;;;;;;;;;;;;;;;;5066101;28;19943;-64
2021/12/13 15:01:11;;;;;;;;;;;;;;;;;;5067396;28;20339;-64
2021/12/13 15:03:36;;;;;;;;;;;;;;;;;;5071723;28;19924;-64
2021/12/13 15:06:01;;;;;;;;;;;;;;;;;;5070728;28;19924;-64
2021/12/13 15:08:27;;;;;;;;;;;;;;;;;;5072946;28;19928;-64
2021/12/13 15:10:52;;;;;;;;;;;;;;;;;;5056374;28;19919;-64
2021/12/13 15:13:17;;;;;;;;;;;;;;;;;;5063043;28;20399;-64
2021/12/13 15:15:42;;;;;;;;;;;;;;;;;;5064761;28;19967;-64
2021/12/13 15:18:07;;;;;;;;;;;;;;;;;;5067448;28;19958;-65
2021/12/13 15:20:32;;;;;;;;;;;;;;;;;;5068677;28;19928;-65
2021/12/13 15:22:57;;;;;;;;;;;;;;;;;;5069651;28;20277;-64
2021/12/13 15:25:22;;;;;;;;;;;;;;;;;;5068618;28;19917;-64
2021/12/13 15:27:49;;;;;;;;;;;;;;;;;;5070642;28;19920;-64
2021/12/13 15:30:14;;;;;;;;;;;;;;;;;;5069208;28;19912;-65
2021/12/13 15:32:39;;;;;;;;;;;;;;;;;;5065828;28;19913;-64
2021/12/13 15:35:04;;;;;;;;;;;;;;;;;;5073114;28;19925;-63
2021/12/13 15:37:29;;;;;;;;;;;;;;;;;;5067168;28;19921;-64
2021/12/13 15:39:54;;;;;;;;;;;;;;;;;;5066381;28;20404;-64
2021/12/13 15:42:19;;;;;;;;;;;;;;;;;;5068951;28;19916;-63
2021/12/13 15:44:44;;;;;;;;;;;;;;;;;;5067165;28;19966;-65
2021/12/13 15:47:09;;;;;;;;;;;;;;;;;;5066809;28;19956;-65
2021/12/13 15:49:35;;;;;;;;;;;;;;;;;;5068768;28;21469;-64
2021/12/13 15:52:00;;;;;;;;;;;;;;;;;;5063184;28;19913;-65
2021/12/13 15:54:25;;;;;;;;;;;;;;;;;;5068986;28;19919;-65
2021/12/13 15:56:50;;;;;;;;;;;;;;;;;;5070704;28;19916;-64
2021/12/13 15:59:16;;;;;;;;;;;;;;;;;;5067095;28;19917;-64
2021/12/13 16:01:41;;;;;;;;;;;;;;;;;;5067672;28;19959;-65
2021/12/13 16:04:06;;;;;;;;;;;;;;;;;;5067487;28;20272;-65
2021/12/13 16:06:31;;;;;;;;;;;;;;;;;;5063197;28;19917;-64
2021/12/13 16:08:56;;;;;;;;;;;;;;;;;;5062053;28;20482;-64
2021/12/13 16:11:21;;;;;;;;;;;;;;;;;;5078749;28;19966;-63
2021/12/13 16:13:46;;;;;;;;;;;;;;;;;;5066656;28;20372;-65
2021/12/13 16:16:11;;;;;;;;;;;;;;;;;;5064388;28;19956;-65
2021/12/13 16:18:36;;;;;;;;;;;;;;;;;;5067041;28;19942;-64
2021/12/13 16:21:01;;;;;;;;;;;;;;;;;;5066914;28;19920;-65
2021/12/13 16:23:26;;;;;;;;;;;;;;;;;;5066999;28;19970;-64
2021/12/13 16:25:52;;;;;;;;;;;;;;;;;;5069614;28;20541;-65
2021/12/13 16:28:17;;;;;;;;;;;;;;;;;;5069708;28;19916;-64
2021/12/13 16:30:42;;;;;;;;;;;;;;;;;;5065365;28;19912;-65
2021/12/13 16:33:07;;;;;;;;;;;;;;;;;;5069307;28;20023;-65
2021/12/13 16:35:32;;;;;;;;;;;;;;;;;;5070164;28;20292;-65
2021/12/13 16:37:57;;;;;;;;;;;;;;;;;;5062684;28;19920;-65